Time;durP1;ratioP1;P1;durP2;ratioP2;P2;SDS_P1;SDS_P2;PMS_P1;PMS_P2;Temp;Humidity;BMP_temperature;BMP_pressure;BME280_temperature;BME280_humidity;BME280_pressure;Samples;Min_cycle;Max_cycle;Signal;HPM_P1;HPM_P2
2021/05/02 00:01:07;;;;;;;3.80;2.75;;;21.60;81.40;;;;;;4974330;28;20062;-66
2021/05/02 00:03:35;;;;;;;6.65;3.00;;;21.70;81.20;;;;;;4965855;28;20050;-66
2021/05/02 00:06:04;;;;;;;4.93;3.13;;;21.80;80.90;;;;;;4974522;28;20026;-66
2021/05/02 00:08:31;;;;;;;4.70;3.22;;;21.90;80.00;;;;;;4966567;28;20407;-69
2021/05/02 00:10:59;;;;;;;4.93;2.63;;;21.90;79.80;;;;;;4962045;28;20039;-65
2021/05/02 00:13:26;;;;;;;5.13;2.72;;;21.90;80.20;;;;;;4963525;28;20077;-66
2021/05/02 00:15:53;;;;;;;3.78;2.72;;;21.90;79.90;;;;;;4966180;28;20470;-66
2021/05/02 00:18:28;;;;;;;5.13;3.08;;;21.90;80.00;;;;;;4974633;28;20035;-68
2021/05/02 00:20:57;;;;;;;4.40;2.80;;;21.80;80.30;;;;;;4971899;28;20074;-66
2021/05/02 00:23:25;;;;;;;4.65;2.60;;;21.90;80.50;;;;;;4976423;28;20098;-67
2021/05/02 00:25:53;;;;;;;4.35;2.83;;;22.00;80.40;;;;;;4976034;28;20089;-65
2021/05/02 00:28:20;;;;;;;7.20;3.20;;;22.00;80.50;;;;;;4974195;28;20043;-66
2021/05/02 00:30:48;;;;;;;4.03;2.55;;;22.10;79.90;;;;;;4975653;28;20127;-66
2021/05/02 00:33:16;;;;;;;3.85;2.33;;;22.10;80.20;;;;;;4974785;28;20034;-67
2021/05/02 00:35:44;;;;;;;3.78;2.85;;;22.20;80.20;;;;;;4975393;28;20078;-67
2021/05/02 00:38:11;;;;;;;4.25;2.65;;;22.20;79.20;;;;;;4960530;28;20043;-66
2021/05/02 00:40:42;;;;;;;3.28;2.22;;;22.10;79.40;;;;;;4961753;28;20035;-67
2021/05/02 00:43:24;;;;;;;2.92;2.33;;;22.10;79.40;;;;;;4964718;28;20150;-65
2021/05/02 00:46:17;;;;;;;4.80;2.35;;;22.10;79.70;;;;;;4957253;28;20050;-67
2021/05/02 00:49:14;;;;;;;4.05;2.85;;;22.10;80.10;;;;;;4964566;28;20043;-66
2021/05/02 00:51:45;;;;;;;2.70;2.42;;;22.20;79.50;;;;;;4956908;28;20051;-67
2021/05/02 00:54:20;;;;;;;2.90;2.60;;;22.30;79.30;;;;;;4957899;28;20027;-66
2021/05/02 00:57:00;;;;;;;4.15;2.60;;;22.30;79.40;;;;;;4958508;28;20363;-67
2021/05/02 00:59:45;;;;;;;3.83;2.65;;;22.30;79.40;;;;;;4962992;28;20031;-65
2021/05/02 01:02:14;;;;;;;3.45;2.10;;;22.20;79.40;;;;;;4964440;28;20035;-66
2021/05/02 01:04:44;;;;;;;2.65;2.28;;;22.20;79.60;;;;;;4960575;28;20386;-66
2021/05/02 01:07:41;;;;;;;2.85;2.42;;;22.30;79.50;;;;;;4956946;28;20039;-66
2021/05/02 01:10:16;;;;;;;5.13;2.28;;;22.30;79.20;;;;;;4953410;28;20150;-66
2021/05/02 01:12:49;;;;;;;2.55;2.03;;;22.40;79.20;;;;;;4957053;28;20071;-68
2021/05/02 01:15:24;;;;;;;4.60;2.25;;;22.40;78.80;;;;;;4970807;28;20038;-67
2021/05/02 01:17:59;;;;;;;3.60;2.30;;;22.50;78.20;;;;;;4971440;28;20122;-66
2021/05/02 01:20:28;;;;;;;2.67;1.92;;;22.50;78.90;;;;;;4972511;28;20030;-66
2021/05/02 01:23:08;;;;;;;4.05;2.47;;;22.40;79.10;;;;;;4961549;28;20058;-66
2021/05/02 01:25:36;;;;;;;3.85;1.88;;;22.40;79.20;;;;;;4971190;28;20456;-64
2021/05/02 01:28:04;;;;;;;3.35;2.22;;;22.40;78.90;;;;;;4961308;28;20043;-65
2021/05/02 01:30:32;;;;;;;3.20;1.92;;;22.50;78.10;;;;;;4955812;28;20031;-66
2021/05/02 01:33:00;;;;;;;3.35;2.17;;;22.50;78.50;;;;;;4957543;28;20019;-65
2021/05/02 01:35:27;;;;;;;3.80;2.28;;;22.40;78.90;;;;;;4968149;28;20482;-66
2021/05/02 01:37:54;;;;;;;3.60;2.00;;;22.50;77.50;;;;;;4967818;28;20123;-65
2021/05/02 01:40:22;;;;;;;2.88;1.92;;;22.60;77.50;;;;;;4952167;28;20523;-63
2021/05/02 01:42:50;;;;;;;4.00;2.25;;;22.40;78.80;;;;;;4967223;28;20045;-64
2021/05/02 01:45:17;;;;;;;4.38;2.33;;;22.50;77.50;;;;;;4970206;28;20022;-65
2021/05/02 01:47:50;;;;;;;2.42;1.77;;;22.40;78.80;;;;;;4969805;28;20091;-66
2021/05/02 01:50:19;;;;;;;2.80;1.60;;;22.40;79.30;;;;;;4967131;28;20047;-64
2021/05/02 01:52:52;;;;;;;3.58;2.03;;;22.50;79.30;;;;;;4965638;28;20445;-65
2021/05/02 01:55:21;;;;;;;3.05;2.35;;;22.50;79.30;;;;;;4961255;28;20114;-70
2021/05/02 01:57:51;;;;;;;6.82;2.45;;;22.50;79.30;;;;;;4968189;28;20149;-65
2021/05/02 02:00:25;;;;;;;2.70;2.00;;;22.50;77.80;;;;;;4970160;28;20133;-67
2021/05/02 02:03:02;;;;;;;2.78;1.85;;;22.60;79.10;;;;;;4964960;28;20034;-62
2021/05/02 02:05:31;;;;;;;2.15;1.90;;;22.70;78.80;;;;;;4969637;28;20109;-66
2021/05/02 02:07:59;;;;;;;2.92;1.90;;;22.60;78.90;;;;;;4969469;28;20034;-60
2021/05/02 02:10:27;;;;;;;3.33;1.90;;;22.60;78.80;;;;;;4955447;28;20027;-64
2021/05/02 02:12:55;;;;;;;3.17;1.98;;;22.70;79.00;;;;;;4964032;28;20023;-61
2021/05/02 02:15:25;;;;;;;4.82;2.33;;;22.70;78.20;;;;;;4969155;28;20031;-63
2021/05/02 02:17:54;;;;;;;4.38;1.77;;;22.90;77.80;;;;;;4970025;28;20035;-63
2021/05/02 02:20:25;;;;;;;2.80;1.85;;;23.00;78.10;;;;;;4971246;28;20098;-62
2021/05/02 02:22:59;;;;;;;2.60;1.92;;;22.90;77.50;;;;;;4964621;28;20031;-63
2021/05/02 02:25:29;;;;;;;4.00;2.00;;;23.10;76.80;;;;;;4965443;28;20050;-63
2021/05/02 02:27:58;;;;;;;4.20;2.00;;;23.30;74.80;;;;;;4970520;28;20145;-63
2021/05/02 02:30:27;;;;;;;3.30;1.60;;;23.40;74.20;;;;;;4967431;28;20110;-64
2021/05/02 02:32:59;;;;;;;3.70;1.83;;;23.50;73.60;;;;;;4965577;28;20397;-64
2021/05/02 02:35:28;;;;;;;2.63;1.50;;;23.50;73.20;;;;;;4968202;28;20362;-65
2021/05/02 02:37:57;;;;;;;6.03;1.95;;;23.60;73.70;;;;;;4966072;28;20090;-66
2021/05/02 02:40:25;;;;;;;4.38;2.20;;;23.70;73.90;;;;;;4966608;28;20355;-64
2021/05/02 02:42:54;;;;;;;2.97;2.00;;;23.70;74.50;;;;;;4964060;28;20042;-65
2021/05/02 02:45:21;;;;;;;6.13;2.10;;;23.60;74.20;;;;;;4969583;28;20057;-67
2021/05/02 02:47:57;;;;;;;4.05;2.17;;;23.60;74.50;;;;;;4960722;28;20481;-65
2021/05/02 02:50:28;;;;;;;6.35;2.10;;;23.50;75.70;;;;;;4953850;28;20055;-65
2021/05/02 02:53:00;;;;;;;9.27;2.47;;;23.50;75.30;;;;;;4965274;28;20042;-65
2021/05/02 02:55:28;;;;;;;2.40;1.75;;;23.60;75.40;;;;;;4966914;28;20016;-69
2021/05/02 02:58:01;;;;;;;4.05;1.88;;;23.50;75.60;;;;;;4973046;28;20031;-65
2021/05/02 03:00:38;;;;;;;5.40;2.10;;;23.50;75.50;;;;;;4971214;28;20039;-64
2021/05/02 03:03:14;;;;;;;2.58;1.45;;;23.60;75.50;;;;;;4968198;28;20034;-62
2021/05/02 03:05:43;;;;;;;2.72;2.13;;;23.60;74.50;;;;;;4955268;28;20030;-67
2021/05/02 03:08:11;;;;;;;3.22;1.70;;;23.60;75.50;;;;;;4967403;28;20458;-66
2021/05/02 03:10:42;;;;;;;5.63;2.00;;;23.70;75.10;;;;;;4962740;28;20470;-69
2021/05/02 03:13:12;;;;;;;3.15;1.90;;;23.70;75.90;;;;;;4964100;28;20039;-64
2021/05/02 03:15:40;;;;;;;3.58;2.00;;;23.70;75.40;;;;;;4965478;28;20427;-64
2021/05/02 03:18:24;;;;;;;6.03;1.58;;;23.80;75.20;;;;;;4972354;28;20034;-63
2021/05/02 03:21:07;;;;;;;7.78;2.55;;;24.00;74.10;;;;;;4961419;28;21101;-61
2021/05/02 03:23:40;;;;;;;4.55;3.50;;;24.30;73.20;;;;;;4968021;28;20038;-59
2021/05/02 03:26:10;;;;;;;9.48;6.55;;;24.50;71.10;;;;;;4972235;28;20498;-62
2021/05/02 03:28:58;;;;;;;12.02;5.63;;;24.60;72.20;;;;;;4970751;28;20450;-60
2021/05/02 03:31:34;;;;;;;13.88;8.80;;;24.70;71.80;;;;;;4971604;28;20027;-63
2021/05/02 03:34:07;;;;;;;14.07;7.60;;;24.60;71.30;;;;;;4959202;28;20035;-61
2021/05/02 03:36:45;;;;;;;14.75;11.07;;;24.60;70.60;;;;;;4978460;28;20042;-62
2021/05/02 03:39:14;;;;;;;7.97;5.65;;;24.60;71.60;;;;;;4964336;28;20027;-64
2021/05/02 03:41:41;;;;;;;18.85;15.43;;;24.50;71.30;;;;;;4964027;28;20031;-67
2021/05/02 03:44:08;;;;;;;10.35;6.95;;;24.50;72.40;;;;;;4965008;28;20069;-63
2021/05/02 03:46:36;;;;;;;19.20;10.88;;;24.50;71.50;;;;;;4967206;28;20085;-65
2021/05/02 03:49:09;;;;;;;14.55;10.20;;;24.40;72.30;;;;;;4974268;28;20043;-61
2021/05/02 03:51:41;;;;;;;13.80;12.20;;;24.50;72.00;;;;;;4969057;28;20042;-60
2021/05/02 03:54:09;;;;;;;11.90;6.47;;;24.50;72.50;;;;;;4960788;28;20073;-65
2021/05/02 03:56:38;;;;;;;13.05;11.10;;;24.50;71.40;;;;;;4974619;28;20057;-61
2021/05/02 03:59:21;;;;;;;17.88;12.85;;;24.50;72.60;;;;;;4971154;28;20170;-60
2021/05/02 04:01:52;;;;;;;12.50;8.25;;;24.50;72.20;;;;;;4968989;28;20031;-63
2021/05/02 04:04:22;;;;;;;18.85;16.95;;;24.50;72.20;;;;;;4958091;28;20418;-61
2021/05/02 04:06:50;;;;;;;19.95;17.92;;;24.50;73.00;;;;;;4975553;28;20057;-63
2021/05/02 04:09:19;;;;;;;16.63;9.73;;;24.60;72.80;;;;;;4958929;28;20110;-61
2021/05/02 04:11:47;;;;;;;10.15;5.95;;;24.70;73.20;;;;;;4958809;28;20027;-61
2021/05/02 04:14:16;;;;;;;8.68;5.47;;;24.70;73.00;;;;;;4964874;28;20031;-59
2021/05/02 04:16:44;;;;;;;8.95;5.45;;;24.90;72.60;;;;;;4959401;28;20114;-60
2021/05/02 04:19:12;;;;;;;11.18;3.55;;;24.90;72.80;;;;;;4967398;28;20038;-58
2021/05/02 04:21:40;;;;;;;7.20;2.25;;;24.80;71.80;;;;;;4974724;28;20845;-61
2021/05/02 04:24:08;;;;;;;12.48;2.72;;;24.80;71.60;;;;;;4973349;28;20506;-62
2021/05/02 04:26:35;;;;;;;6.95;3.35;;;24.80;71.20;;;;;;4973351;28;20046;-59
2021/05/02 04:29:03;;;;;;;11.93;3.53;;;24.80;72.00;;;;;;4966813;28;20047;-62
2021/05/02 04:31:30;;;;;;;6.95;2.55;;;24.80;72.80;;;;;;4968162;28;20023;-58
2021/05/02 04:33:57;;;;;;;11.90;1.98;;;24.60;72.20;;;;;;4957699;28;20114;-62
2021/05/02 04:36:25;;;;;;;18.38;2.75;;;24.60;73.80;;;;;;4972405;28;20114;-66
2021/05/02 04:38:52;;;;;;;15.68;2.05;;;24.60;75.00;;;;;;4964050;28;20030;-64
2021/05/02 04:41:19;;;;;;;8.02;1.98;;;24.40;72.30;;;;;;4965267;28;20066;-64
2021/05/02 04:43:47;;;;;;;7.70;1.65;;;24.30;74.30;;;;;;4964075;28;20520;-65
2021/05/02 04:46:14;;;;;;;7.65;2.03;;;24.20;73.60;;;;;;4969402;28;20035;-64
2021/05/02 04:48:42;;;;;;;12.95;2.50;;;24.20;73.80;;;;;;4963545;28;20043;-63
2021/05/02 04:51:11;;;;;;;5.35;1.70;;;24.10;74.60;;;;;;4971833;28;20105;-63
2021/05/02 04:53:39;;;;;;;7.00;2.08;;;24.10;74.10;;;;;;4963907;28;20085;-64
2021/05/02 04:56:06;;;;;;;4.00;1.83;;;24.20;74.60;;;;;;4953752;28;20462;-65
2021/05/02 04:58:35;;;;;;;11.20;2.17;;;24.30;75.20;;;;;;4948250;28;20504;-64
2021/05/02 05:01:03;;;;;;;3.42;1.63;;;24.40;74.30;;;;;;4972327;28;20171;-60
2021/05/02 05:03:32;;;;;;;10.70;2.10;;;24.50;74.70;;;;;;4964875;28;20102;-65
2021/05/02 05:05:59;;;;;;;8.55;1.95;;;24.50;73.70;;;;;;4957736;28;20069;-63
2021/05/02 05:08:27;;;;;;;11.00;1.77;;;24.70;74.60;;;;;;4967580;28;20045;-59
2021/05/02 05:10:54;;;;;;;13.55;1.85;;;24.70;73.70;;;;;;4970693;28;20046;-60
2021/05/02 05:13:22;;;;;;;16.00;2.08;;;24.80;73.70;;;;;;4972807;28;20065;-58
2021/05/02 05:15:49;;;;;;;12.55;2.65;;;24.90;73.70;;;;;;4973472;28;20049;-62
2021/05/02 05:18:17;;;;;;;14.20;2.20;;;24.90;73.90;;;;;;4972450;28;20030;-64
2021/05/02 05:20:44;;;;;;;13.70;2.13;;;25.00;74.50;;;;;;4971683;28;20027;-64
2021/05/02 05:23:11;;;;;;;13.20;2.40;;;25.00;74.30;;;;;;4970551;28;20113;-64
2021/05/02 05:25:39;;;;;;;9.85;2.45;;;25.20;74.20;;;;;;4972800;28;20454;-67
2021/05/02 05:28:06;;;;;;;5.30;1.35;;;25.30;73.40;;;;;;4971011;28;20429;-66
2021/05/02 05:30:34;;;;;;;9.18;1.67;;;25.40;72.90;;;;;;4972850;28;20037;-63
2021/05/02 05:33:06;;;;;;;8.07;2.15;;;25.50;73.10;;;;;;4971409;28;20059;-70
2021/05/02 05:35:33;;;;;;;;;;;25.50;72.90;;;;;;4972732;28;20057;-64
2021/05/02 05:38:00;;;;;;;7.95;1.63;;;25.60;73.30;;;;;;4973796;28;20380;-64
2021/05/02 05:40:29;;;;;;;7.57;1.33;;;25.60;71.60;;;;;;4972533;28;20023;-63
2021/05/02 05:42:57;;;;;;;7.40;1.40;;;25.70;71.50;;;;;;4973192;28;20085;-60
2021/05/02 05:45:25;;;;;;;8.32;1.55;;;25.80;71.50;;;;;;4973939;28;20087;-67
2021/05/02 05:47:53;;;;;;;9.05;2.35;;;25.80;71.30;;;;;;4973518;28;20050;-57
2021/05/02 05:50:22;;;;;;;16.88;1.75;;;25.80;72.10;;;;;;4963987;28;20062;-58
2021/05/02 05:52:52;;;;;;;16.90;1.92;;;25.90;73.70;;;;;;4970657;28;20035;-69
2021/05/02 05:55:20;;;;;;;5.72;1.10;;;25.80;71.70;;;;;;4973077;28;20120;-60
2021/05/02 05:57:49;;;;;;;17.58;2.15;;;25.80;70.80;;;;;;4971107;28;20474;-50
2021/05/02 06:00:18;;;;;;;7.45;1.98;;;25.90;72.20;;;;;;4972714;28;20026;-63
2021/05/02 06:02:46;;;;;;;26.45;2.13;;;25.90;73.40;;;;;;4971538;28;20443;-63
2021/05/02 06:05:15;;;;;;;39.50;4.05;;;26.00;73.30;;;;;;4971501;28;20065;-57
2021/05/02 06:07:43;;;;;;;17.30;3.10;;;25.90;73.00;;;;;;4970585;28;20430;-61
2021/05/02 06:10:12;;;;;;;32.30;4.38;;;25.80;70.60;;;;;;4969921;28;20041;-67
2021/05/02 06:12:41;;;;;;;15.40;2.35;;;25.60;75.20;;;;;;4973590;28;20049;-68
2021/05/02 06:15:13;;;;;;;24.75;3.70;;;25.50;74.00;;;;;;4966077;28;20033;-64
2021/05/02 06:17:41;;;;;;;17.20;2.30;;;25.40;74.90;;;;;;4966540;28;20042;-66
2021/05/02 06:20:09;;;;;;;22.00;3.25;;;25.20;74.30;;;;;;4962311;28;20043;-72
2021/05/02 06:22:37;;;;;;;22.80;2.90;;;25.10;75.50;;;;;;4960694;28;20085;-62
2021/05/02 06:25:06;;;;;;;20.30;2.08;;;25.10;75.20;;;;;;4955381;28;20034;-62
2021/05/02 06:27:34;;;;;;;23.75;2.80;;;25.00;75.50;;;;;;4971328;28;20363;-62
2021/05/02 06:30:03;;;;;;;19.23;2.75;;;24.90;76.30;;;;;;4968337;28;20030;-64
2021/05/02 06:32:31;;;;;;;13.18;2.10;;;24.80;75.80;;;;;;4971443;28;20323;-66
2021/05/02 06:34:58;;;;;;;15.43;2.58;;;24.70;76.50;;;;;;4960841;28;20394;-61
2021/05/02 06:37:26;;;;;;;14.30;2.08;;;24.60;77.00;;;;;;4959442;28;20027;-61
2021/05/02 06:39:55;;;;;;;21.40;3.10;;;24.50;76.90;;;;;;4962788;28;20389;-69
2021/05/02 06:42:24;;;;;;;16.02;2.25;;;24.50;78.10;;;;;;4958366;28;20037;-67
2021/05/02 06:44:54;;;;;;;;;;;24.30;78.20;;;;;;4956872;28;20102;-69
2021/05/02 06:47:22;;;;;;;15.00;2.42;;;24.30;78.40;;;;;;4954034;28;19917;-67
2021/05/02 06:49:49;;;;;;;13.70;2.22;;;24.20;78.90;;;;;;4966072;28;20426;-67
2021/05/02 06:52:17;;;;;;;11.32;1.60;;;24.10;79.00;;;;;;4972822;28;20058;-67
2021/05/02 06:54:44;;;;;;;14.48;2.10;;;24.10;79.20;;;;;;4971954;28;20416;-65
2021/05/02 06:57:12;;;;;;;13.43;1.90;;;24.00;79.60;;;;;;4969742;28;20493;-69
2021/05/02 06:59:40;;;;;;;9.10;1.90;;;23.90;80.20;;;;;;4959956;28;20031;-63
2021/05/02 07:02:08;;;;;;;9.48;1.60;;;23.90;79.90;;;;;;4965123;28;20106;-64
2021/05/02 07:04:35;;;;;;;7.40;1.92;;;23.90;80.60;;;;;;4953556;28;20126;-64
2021/05/02 07:07:04;;;;;;;15.18;1.58;;;23.80;80.80;;;;;;4937901;29;20035;-62
2021/05/02 07:09:32;;;;;;;14.63;2.28;;;23.70;80.70;;;;;;4970776;28;20102;-71
2021/05/02 07:12:00;;;;;;;12.82;1.80;;;23.60;80.80;;;;;;4969667;28;20031;-70
2021/05/02 07:14:27;;;;;;;9.65;2.25;;;23.50;81.20;;;;;;4965598;28;20027;-67
2021/05/02 07:16:55;;;;;;;10.32;1.65;;;23.40;81.60;;;;;;4966313;28;20039;-69
2021/05/02 07:19:23;;;;;;;11.13;1.75;;;23.40;81.60;;;;;;4966761;28;20031;-70
2021/05/02 07:22:04;;;;;;;8.85;1.70;;;23.30;82.50;;;;;;4973601;28;20074;-70
2021/05/02 07:24:32;;;;;;;15.20;2.20;;;23.20;82.60;;;;;;4954168;29;20039;-74
2021/05/02 07:27:02;;;;;;;7.93;1.48;;;23.10;83.10;;;;;;4940519;28;20042;-69
2021/05/02 07:29:30;;;;;;;8.50;2.35;;;23.10;83.20;;;;;;4973472;28;20513;-68
2021/05/02 07:31:57;;;;;;;6.80;1.38;;;23.10;83.50;;;;;;4966819;28;20046;-64
2021/05/02 07:34:26;;;;;;;7.38;1.58;;;23.00;83.50;;;;;;4955527;28;20061;-68
2021/05/02 07:36:56;;;;;;;4.80;1.42;;;23.00;83.70;;;;;;4963231;28;20031;-68
2021/05/02 07:39:24;;;;;;;4.75;1.75;;;22.90;83.70;;;;;;4970488;28;20031;-69
2021/05/02 07:41:53;;;;;;;5.82;1.85;;;22.90;84.00;;;;;;4970828;28;20083;-70
2021/05/02 07:44:21;;;;;;;9.10;1.73;;;22.90;83.90;;;;;;4971480;28;20022;-70
2021/05/02 07:46:48;;;;;;;4.55;1.45;;;22.80;84.10;;;;;;4955092;28;20389;-66
2021/05/02 07:49:15;;;;;;;5.03;1.40;;;22.80;84.40;;;;;;4955797;28;20403;-67
2021/05/02 07:51:43;;;;;;;9.48;1.30;;;22.70;84.30;;;;;;4955438;28;20181;-68
2021/05/02 07:54:10;;;;;;;3.15;1.00;;;22.70;85.20;;;;;;4971005;28;20076;-69
2021/05/02 07:56:37;;;;;;;7.15;1.70;;;22.70;84.70;;;;;;4974105;28;20113;-68
2021/05/02 07:59:05;;;;;;;11.20;2.03;;;22.60;85.00;;;;;;4968240;28;20031;-68
2021/05/02 08:01:32;;;;;;;13.38;1.45;;;22.60;85.20;;;;;;4961905;28;20065;-69
2021/05/02 08:04:00;;;;;;;6.32;1.65;;;22.60;85.30;;;;;;4966509;28;20029;-71
2021/05/02 08:06:27;;;;;;;6.35;1.95;;;22.50;85.20;;;;;;4974644;28;20481;-68
2021/05/02 08:08:54;;;;;;;5.05;1.20;;;22.50;85.20;;;;;;4973352;28;20046;-67
2021/05/02 08:11:22;;;;;;;5.15;1.50;;;22.40;85.40;;;;;;4975208;28;20106;-67
2021/05/02 08:13:49;;;;;;;6.32;1.40;;;22.40;85.50;;;;;;4972904;28;20101;-63
2021/05/02 08:16:16;;;;;;;8.13;1.38;;;22.40;85.60;;;;;;4964047;28;20101;-70
2021/05/02 08:18:44;;;;;;;6.28;2.05;;;22.40;85.80;;;;;;4974887;28;20100;-65
2021/05/02 08:21:11;;;;;;;5.32;1.58;;;22.30;85.80;;;;;;4972610;28;20019;-70
2021/05/02 08:23:41;;;;;;;6.82;1.90;;;22.30;85.90;;;;;;4965266;28;20035;-70
2021/05/02 08:26:09;;;;;;;10.00;2.03;;;22.30;86.10;;;;;;4964580;28;20034;-67
2021/05/02 08:28:37;;;;;;;7.50;2.28;;;22.30;86.00;;;;;;4963989;28;20030;-70
2021/05/02 08:31:04;;;;;;;5.20;1.30;;;22.30;86.10;;;;;;4974655;28;20073;-71
2021/05/02 08:33:32;;;;;;;8.23;1.70;;;22.30;86.10;;;;;;4963993;28;20374;-71
2021/05/02 08:36:01;;;;;;;5.68;1.50;;;22.20;86.20;;;;;;4973171;28;20031;-68
2021/05/02 08:38:28;;;;;;;8.65;1.90;;;22.20;86.30;;;;;;4958350;28;20043;-67
2021/05/02 08:40:57;;;;;;;11.18;1.90;;;22.20;86.60;;;;;;4962908;28;20125;-68
2021/05/02 08:43:25;;;;;;;3.13;1.60;;;22.10;86.50;;;;;;4962771;28;20020;-66
2021/05/02 08:45:53;;;;;;;4.78;1.30;;;22.10;86.60;;;;;;4958825;28;20030;-61
2021/05/02 08:48:22;;;;;;;6.70;2.05;;;22.10;86.80;;;;;;4969692;28;20070;-62
2021/05/02 08:50:50;;;;;;;8.88;2.10;;;22.10;87.50;;;;;;4975949;28;20046;-64
2021/05/02 08:53:18;;;;;;;4.03;1.52;;;22.10;87.10;;;;;;4968682;28;20057;-66
2021/05/02 08:55:47;;;;;;;7.25;1.70;;;22.00;87.10;;;;;;4955199;28;20035;-62
2021/05/02 08:58:22;;;;;;;9.07;2.55;;;22.00;87.10;;;;;;4972170;28;20048;-61
2021/05/02 09:00:53;;;;;;;6.55;1.60;;;22.00;87.20;;;;;;4971531;28;20031;-67
2021/05/02 09:03:20;;;;;;;4.30;1.70;;;22.00;87.30;;;;;;4951055;28;20035;-62
2021/05/02 09:05:50;;;;;;;8.00;2.20;;;22.00;87.30;;;;;;4970113;28;20031;-64
2021/05/02 09:08:36;;;;;;;5.13;1.38;;;22.00;87.50;;;;;;4973622;28;20470;-68
2021/05/02 09:11:04;;;;;;;3.50;1.77;;;22.00;87.50;;;;;;4974129;28;20031;-63
2021/05/02 09:13:31;;;;;;;7.90;1.38;;;22.00;87.50;;;;;;4967818;28;20034;-64
2021/05/02 09:16:06;;;;;;;6.55;1.70;;;21.90;87.50;;;;;;4972460;28;20359;-64
2021/05/02 09:18:40;;;;;;;8.32;1.83;;;21.90;87.50;;;;;;4953166;28;20058;-71
2021/05/02 09:21:14;;;;;;;7.32;1.73;;;21.90;87.50;;;;;;4965972;28;20022;-67
2021/05/02 09:23:43;;;;;;;3.90;1.52;;;21.90;87.60;;;;;;4971120;28;20508;-68
2021/05/02 09:26:35;;;;;;;7.15;1.88;;;21.80;87.50;;;;;;4965928;28;20524;-69
2021/05/02 09:29:06;;;;;;;7.32;2.22;;;21.80;87.50;;;;;;4965574;28;20075;-66
2021/05/02 09:31:35;;;;;;;10.70;1.38;;;21.80;87.60;;;;;;4951950;28;20038;-66
2021/05/02 09:34:19;;;;;;;7.15;1.50;;;21.80;87.60;;;;;;4969002;28;20505;-65
2021/05/02 09:37:06;;;;;;;6.60;2.03;;;21.80;87.60;;;;;;4966517;28;20101;-67
2021/05/02 09:39:48;;;;;;;6.20;1.92;;;21.80;87.60;;;;;;4970969;28;20092;-70
2021/05/02 09:42:35;;;;;;;4.10;1.52;;;21.80;87.70;;;;;;4968420;28;20065;-66
2021/05/02 09:45:07;;;;;;;6.38;2.10;;;21.80;87.60;;;;;;4968269;28;20043;-64
2021/05/02 09:47:38;;;;;;;3.90;1.50;;;21.80;87.60;;;;;;4969769;28;20035;-57
2021/05/02 09:50:06;;;;;;;6.07;1.50;;;21.70;87.30;;;;;;4972133;28;20516;-60
2021/05/02 09:53:02;;;;;;;5.03;1.40;;;21.70;87.50;;;;;;4967602;28;20035;-64
2021/05/02 09:55:34;;;;;;;4.05;1.15;;;21.70;87.40;;;;;;4968059;28;20031;-60
2021/05/02 09:58:12;;;;;;;5.97;1.58;;;21.80;87.60;;;;;;4971005;28;20026;-66
2021/05/02 10:00:45;;;;;;;3.28;1.15;;;21.80;87.50;;;;;;4970786;28;20505;-62
2021/05/02 10:03:20;;;;;;;5.03;1.67;;;21.70;87.20;;;;;;4965501;28;20027;-63
2021/05/02 10:05:55;;;;;;;9.52;2.05;;;21.70;87.20;;;;;;4970031;28;20454;-62
2021/05/02 10:08:26;;;;;;;6.63;1.40;;;21.70;87.30;;;;;;4971962;28;20054;-59
2021/05/02 10:10:55;;;;;;;4.75;1.40;;;21.70;87.10;;;;;;4969803;28;20034;-64
2021/05/02 10:13:22;;;;;;;4.40;1.48;;;21.70;87.30;;;;;;4963338;28;20514;-63
2021/05/02 10:15:51;;;;;;;10.93;1.70;;;21.70;87.00;;;;;;4971217;28;20030;-68
2021/05/02 10:18:18;;;;;;;4.97;1.20;;;21.70;86.90;;;;;;4965452;28;20029;-66
2021/05/02 10:20:49;;;;;;;5.32;1.20;;;21.60;87.10;;;;;;4963723;28;20081;-67
2021/05/02 10:23:17;;;;;;;2.78;1.17;;;21.60;87.40;;;;;;4969946;28;20026;-66
2021/05/02 10:25:47;;;;;;;2.70;1.20;;;21.60;87.30;;;;;;4964392;28;20054;-66
2021/05/02 10:28:34;;;;;;;5.80;1.42;;;21.50;87.10;;;;;;4964579;28;20042;-67
2021/05/02 10:31:04;;;;;;;5.57;1.02;;;21.60;87.30;;;;;;4955263;28;20027;-68
2021/05/02 10:33:39;;;;;;;5.53;1.60;;;21.50;87.10;;;;;;4961132;28;20504;-65
2021/05/02 10:36:34;;;;;;;4.70;1.25;;;21.50;87.20;;;;;;4959380;28;20110;-67
2021/05/02 10:39:01;;;;;;;4.85;1.13;;;21.50;87.00;;;;;;4954922;28;20106;-66
2021/05/02 10:41:30;;;;;;;3.10;0.95;;;21.40;87.20;;;;;;4964199;28;20059;-65
2021/05/02 10:44:19;;;;;;;3.88;1.20;;;21.40;87.10;;;;;;4972591;28;20034;-65
2021/05/02 10:46:53;;;;;;;5.15;1.58;;;21.40;87.40;;;;;;4958350;28;20035;-65
2021/05/02 10:49:20;;;;;;;5.45;1.52;;;21.40;87.30;;;;;;4965284;28;20046;-64
2021/05/02 10:51:52;;;;;;;5.32;1.25;;;21.40;87.30;;;;;;4972311;28;20023;-67
2021/05/02 10:54:43;;;;;;;1.73;1.00;;;21.30;87.40;;;;;;4969890;28;20035;-68
2021/05/02 10:57:33;;;;;;;3.42;1.23;;;21.30;87.40;;;;;;4958780;28;20031;-67
2021/05/02 11:00:11;;;;;;;4.53;1.08;;;21.30;87.50;;;;;;4968015;28;20027;-67
2021/05/02 11:02:44;;;;;;;3.88;1.30;;;21.20;87.20;;;;;;4961305;28;20035;-64
2021/05/02 11:05:13;;;;;;;3.67;1.25;;;21.20;87.30;;;;;;4964347;28;20039;-66
2021/05/02 11:07:46;;;;;;;3.28;1.52;;;21.20;87.60;;;;;;4958552;28;20039;-67
2021/05/02 11:10:16;;;;;;;2.83;1.30;;;21.20;87.70;;;;;;4969909;28;20121;-66
2021/05/02 11:12:46;;;;;;;2.80;1.00;;;21.20;87.70;;;;;;4962186;28;20026;-67
2021/05/02 11:15:25;;;;;;;3.20;1.42;;;21.20;87.60;;;;;;4969755;28;20520;-66
2021/05/02 11:17:53;;;;;;;5.90;1.35;;;21.10;87.70;;;;;;4969721;28;20073;-67
2021/05/02 11:20:39;;;;;;;1.77;1.00;;;21.10;87.60;;;;;;4971410;28;20075;-66
2021/05/02 11:23:06;;;;;;;3.90;1.27;;;21.10;87.80;;;;;;4971692;28;20034;-68
2021/05/02 11:25:47;;;;;;;3.35;1.00;;;21.10;87.60;;;;;;4947423;28;20370;-67
2021/05/02 11:28:55;;;;;;;3.20;1.10;;;21.10;87.80;;;;;;4976243;28;20126;-65
2021/05/02 11:31:42;;;;;;;3.08;1.20;;;21.10;88.00;;;;;;4974366;28;20035;-66
2021/05/02 11:34:09;;;;;;;3.00;1.33;;;21.00;87.90;;;;;;4958435;28;20387;-66
2021/05/02 11:36:44;;;;;;;4.28;1.20;;;21.00;87.90;;;;;;4973847;28;20121;-68
2021/05/02 11:39:29;;;;;;;4.50;1.17;;;21.00;88.00;;;;;;4962005;28;20027;-67
2021/05/02 11:42:09;;;;;;;3.50;1.02;;;21.00;88.00;;;;;;4968570;28;20032;-67
2021/05/02 11:44:38;;;;;;;3.30;1.10;;;21.00;87.90;;;;;;4957367;28;20031;-66
2021/05/02 11:47:10;;;;;;;2.28;1.05;;;21.00;87.90;;;;;;4957241;28;20589;-66
2021/05/02 11:49:41;;;;;;;1.63;0.80;;;21.00;88.20;;;;;;4973298;28;19918;-61
2021/05/02 11:52:09;;;;;;;3.40;0.90;;;20.90;88.30;;;;;;4973280;28;20501;-65
2021/05/02 11:54:46;;;;;;;5.65;0.90;;;21.00;88.30;;;;;;4967793;28;20062;-67
2021/05/02 11:57:13;;;;;;;1.83;1.02;;;20.90;88.30;;;;;;4971976;28;20027;-61
2021/05/02 11:59:53;;;;;;;2.70;0.95;;;20.90;88.10;;;;;;4957553;28;20026;-64
2021/05/02 12:02:20;;;;;;;2.92;1.02;;;20.90;88.20;;;;;;4974963;28;20030;-60
2021/05/02 12:04:48;;;;;;;4.65;1.27;;;20.90;88.10;;;;;;4967129;28;20045;-61
2021/05/02 12:07:15;;;;;;;4.00;1.30;;;20.90;87.90;;;;;;4972806;28;20170;-61
2021/05/02 12:09:43;;;;;;;2.47;0.95;;;20.90;88.10;;;;;;4971893;28;20158;-67
2021/05/02 12:12:11;;;;;;;5.18;1.52;;;20.90;88.10;;;;;;4969817;28;20034;-63
2021/05/02 12:14:38;;;;;;;2.28;1.27;;;20.90;88.10;;;;;;4965597;28;20050;-62
2021/05/02 12:17:07;;;;;;;3.88;1.05;;;20.90;88.00;;;;;;4969768;28;20086;-66
2021/05/02 12:19:36;;;;;;;2.50;1.00;;;20.90;87.90;;;;;;4970736;28;20117;-61
2021/05/02 12:22:05;;;;;;;2.72;1.00;;;20.90;88.00;;;;;;4972293;28;20035;-64
2021/05/02 12:24:34;;;;;;;3.20;1.30;;;20.90;87.90;;;;;;4967538;28;20651;-64
2021/05/02 12:27:08;;;;;;;2.13;1.00;;;21.00;87.90;;;;;;4969121;28;20026;-63
2021/05/02 12:29:37;;;;;;;3.25;0.88;;;21.00;88.50;;;;;;4972456;28;20035;-62
2021/05/02 12:32:11;;;;;;;3.17;1.00;;;21.00;87.80;;;;;;4971557;28;20552;-62
2021/05/02 12:34:49;;;;;;;3.80;0.73;;;21.00;87.90;;;;;;4967400;28;20047;-66
2021/05/02 12:37:35;;;;;;;2.72;1.20;;;21.00;87.70;;;;;;4965678;28;20037;-60
2021/05/02 12:40:06;;;;;;;2.00;0.88;;;21.00;87.80;;;;;;4970507;28;20029;-61
2021/05/02 12:42:38;;;;;;;1.65;0.90;;;21.00;87.70;;;;;;4971443;28;20390;-63
2021/05/02 12:45:07;;;;;;;4.82;1.30;;;21.00;87.70;;;;;;4969476;28;20466;-67
2021/05/02 12:47:50;;;;;;;5.55;1.08;;;21.00;87.60;;;;;;4972136;28;20043;-63
2021/05/02 12:50:19;;;;;;;3.38;0.90;;;21.00;87.50;;;;;;4972414;28;20054;-65
2021/05/02 12:52:54;;;;;;;1.42;0.75;;;21.00;87.60;;;;;;4970201;28;20030;-63
2021/05/02 12:55:30;;;;;;;4.10;1.00;;;21.00;87.50;;;;;;4962320;28;20039;-67
2021/05/02 12:58:07;;;;;;;2.75;0.80;;;21.00;87.50;;;;;;4957264;28;20031;-67
2021/05/02 13:00:48;;;;;;;1.65;0.60;;;21.00;87.40;;;;;;4967790;28;20418;-67
2021/05/02 13:03:45;;;;;;;2.92;1.02;;;20.90;87.50;;;;;;4958491;28;20110;-67
2021/05/02 13:06:14;;;;;;;2.05;0.80;;;20.90;88.00;;;;;;4961503;28;20415;-68